sensor_id;sensor_type;location;lat;lon;timestamp;P1;durP1;ratioP1;P2;durP2;ratioP2
22439;SDS011;11387;51.612;7.210;2023-02-28T00:00:29;11.27;;;4.30;;
22439;SDS011;11387;51.612;7.210;2023-02-28T00:02:59;12.38;;;4.45;;
22439;SDS011;11387;51.612;7.210;2023-02-28T00:05:28;9.27;;;4.53;;
22439;SDS011;11387;51.612;7.210;2023-02-28T00:07:57;8.00;;;4.22;;
22439;SDS011;11387;51.612;7.210;2023-02-28T00:10:27;11.55;;;4.55;;
22439;SDS011;11387;51.612;7.210;2023-02-28T00:12:59;7.45;;;3.85;;
22439;SDS011;11387;51.612;7.210;2023-02-28T00:15:29;7.88;;;4.25;;
22439;SDS011;11387;51.612;7.210;2023-02-28T00:18:00;7.38;;;3.75;;
22439;SDS011;11387;51.612;7.210;2023-02-28T00:20:30;8.60;;;4.65;;
22439;SDS011;11387;51.612;7.210;2023-02-28T00:22:59;6.55;;;3.85;;
22439;SDS011;11387;51.612;7.210;2023-02-28T00:25:29;8.20;;;3.97;;
22439;SDS011;11387;51.612;7.210;2023-02-28T00:27:58;9.88;;;4.63;;
22439;SDS011;11387;51.612;7.210;2023-02-28T00:30:29;12.05;;;4.18;;
22439;SDS011;11387;51.612;7.210;2023-02-28T00:33:00;8.20;;;3.28;;
22439;SDS011;11387;51.612;7.210;2023-02-28T00:35:29;12.63;;;3.95;;
22439;SDS011;11387;51.612;7.210;2023-02-28T00:37:57;9.13;;;3.40;;
22439;SDS011;11387;51.612;7.210;2023-02-28T00:40:26;6.75;;;2.83;;
22439;SDS011;11387;51.612;7.210;2023-02-28T00:43:01;10.10;;;3.55;;
22439;SDS011;11387;51.612;7.210;2023-02-28T00:45:31;8.95;;;3.25;;
22439;SDS011;11387;51.612;7.210;2023-02-28T00:48:00;8.82;;;3.17;;
22439;SDS011;11387;51.612;7.210;2023-02-28T00:50:32;8.52;;;3.25;;
22439;SDS011;11387;51.612;7.210;2023-02-28T00:53:01;8.73;;;3.53;;
22439;SDS011;11387;51.612;7.210;2023-02-28T00:55:32;8.43;;;3.10;;
22439;SDS011;11387;51.612;7.210;2023-02-28T00:58:00;6.95;;;3.22;;
22439;SDS011;11387;51.612;7.210;2023-02-28T01:00:30;9.98;;;3.17;;
22439;SDS011;11387;51.612;7.210;2023-02-28T01:02:59;9.20;;;3.42;;
22439;SDS011;11387;51.612;7.210;2023-02-28T01:05:30;10.98;;;4.40;;
22439;SDS011;11387;51.612;7.210;2023-02-28T01:07:59;7.25;;;2.90;;
22439;SDS011;11387;51.612;7.210;2023-02-28T01:10:27;6.93;;;2.78;;
22439;SDS011;11387;51.612;7.210;2023-02-28T01:13:02;5.07;;;2.80;;
22439;SDS011;11387;51.612;7.210;2023-02-28T01:15:33;8.00;;;3.85;;
22439;SDS011;11387;51.612;7.210;2023-02-28T01:18:02;5.85;;;2.72;;
22439;SDS011;11387;51.612;7.210;2023-02-28T01:20:30;8.88;;;2.63;;
22439;SDS011;11387;51.612;7.210;2023-02-28T01:22:59;6.43;;;2.63;;
22439;SDS011;11387;51.612;7.210;2023-02-28T01:25:27;6.35;;;3.05;;
22439;SDS011;11387;51.612;7.210;2023-02-28T01:27:56;5.03;;;2.58;;
22439;SDS011;11387;51.612;7.210;2023-02-28T01:30:26;4.13;;;2.33;;
22439;SDS011;11387;51.612;7.210;2023-02-28T01:32:58;5.10;;;2.63;;
22439;SDS011;11387;51.612;7.210;2023-02-28T01:35:27;8.80;;;2.97;;
22439;SDS011;11387;51.612;7.210;2023-02-28T01:37:55;6.72;;;2.35;;
22439;SDS011;11387;51.612;7.210;2023-02-28T01:40:35;7.57;;;2.50;;
22439;SDS011;11387;51.612;7.210;2023-02-28T01:43:04;8.43;;;2.60;;
22439;SDS011;11387;51.612;7.210;2023-02-28T01:45:49;6.75;;;2.55;;
22439;SDS011;11387;51.612;7.210;2023-02-28T01:48:18;6.15;;;2.63;;
22439;SDS011;11387;51.612;7.210;2023-02-28T01:50:51;4.93;;;2.60;;
22439;SDS011;11387;51.612;7.210;2023-02-28T01:53:24;8.25;;;3.03;;
22439;SDS011;11387;51.612;7.210;2023-02-28T01:55:59;5.25;;;2.47;;
22439;SDS011;11387;51.612;7.210;2023-02-28T01:58:28;5.07;;;2.72;;
22439;SDS011;11387;51.612;7.210;2023-02-28T02:00:57;5.82;;;2.88;;
22439;SDS011;11387;51.612;7.210;2023-02-28T02:03:26;6.78;;;3.35;;
22439;SDS011;11387;51.612;7.210;2023-02-28T02:05:55;7.55;;;2.40;;
22439;SDS011;11387;51.612;7.210;2023-02-28T02:08:25;5.95;;;2.85;;
22439;SDS011;11387;51.612;7.210;2023-02-28T02:10:56;5.18;;;2.72;;
22439;SDS011;11387;51.612;7.210;2023-02-28T02:13:34;9.32;;;3.42;;
22439;SDS011;11387;51.612;7.210;2023-02-28T02:16:18;5.88;;;3.20;;
22439;SDS011;11387;51.612;7.210;2023-02-28T02:19:23;4.43;;;2.55;;
22439;SDS011;11387;51.612;7.210;2023-02-28T02:22:12;9.77;;;3.05;;
22439;SDS011;11387;51.612;7.210;2023-02-28T02:25:10;8.23;;;2.45;;
22439;SDS011;11387;51.612;7.210;2023-02-28T02:27:53;6.05;;;2.88;;
22439;SDS011;11387;51.612;7.210;2023-02-28T02:30:44;8.15;;;3.20;;
22439;SDS011;11387;51.612;7.210;2023-02-28T02:33:32;6.57;;;2.50;;
22439;SDS011;11387;51.612;7.210;2023-02-28T02:36:16;6.53;;;2.88;;
22439;SDS011;11387;51.612;7.210;2023-02-28T02:38:50;5.05;;;2.20;;
22439;SDS011;11387;51.612;7.210;2023-02-28T02:41:23;7.88;;;2.40;;
22439;SDS011;11387;51.612;7.210;2023-02-28T02:43:58;4.25;;;2.00;;
22439;SDS011;11387;51.612;7.210;2023-02-28T02:46:33;7.20;;;2.90;;
22439;SDS011;11387;51.612;7.210;2023-02-28T02:49:06;6.53;;;2.90;;
22439;SDS011;11387;51.612;7.210;2023-02-28T02:51:38;5.75;;;2.00;;
22439;SDS011;11387;51.612;7.210;2023-02-28T02:54:11;5.70;;;1.70;;
22439;SDS011;11387;51.612;7.210;2023-02-28T02:56:45;4.03;;;1.50;;
22439;SDS011;11387;51.612;7.210;2023-02-28T02:59:16;4.47;;;1.52;;
22439;SDS011;11387;51.612;7.210;2023-02-28T03:01:49;4.25;;;2.05;;
22439;SDS011;11387;51.612;7.210;2023-02-28T03:04:20;4.22;;;1.40;;
22439;SDS011;11387;51.612;7.210;2023-02-28T03:06:53;3.15;;;1.60;;
22439;SDS011;11387;51.612;7.210;2023-02-28T03:09:22;4.75;;;1.73;;
22439;SDS011;11387;51.612;7.210;2023-02-28T03:11:54;5.45;;;1.80;;
22439;SDS011;11387;51.612;7.210;2023-02-28T03:14:36;3.15;;;1.65;;
22439;SDS011;11387;51.612;7.210;2023-02-28T03:17:31;3.22;;;1.88;;
22439;SDS011;11387;51.612;7.210;2023-02-28T03:20:12;5.50;;;2.22;;
22439;SDS011;11387;51.612;7.210;2023-02-28T03:22:50;4.20;;;1.92;;
22439;SDS011;11387;51.612;7.210;2023-02-28T03:25:27;3.70;;;1.77;;
22439;SDS011;11387;51.612;7.210;2023-02-28T03:28:03;11.15;;;2.08;;
22439;SDS011;11387;51.612;7.210;2023-02-28T03:30:40;3.40;;;2.00;;
22439;SDS011;11387;51.612;7.210;2023-02-28T03:33:14;5.03;;;1.73;;
22439;SDS011;11387;51.612;7.210;2023-02-28T03:35:47;5.10;;;1.95;;
22439;SDS011;11387;51.612;7.210;2023-02-28T03:38:22;5.82;;;2.05;;
22439;SDS011;11387;51.612;7.210;2023-02-28T03:41:12;5.80;;;1.80;;
22439;SDS011;11387;51.612;7.210;2023-02-28T03:43:45;3.97;;;1.60;;
22439;SDS011;11387;51.612;7.210;2023-02-28T03:46:18;5.47;;;1.77;;
22439;SDS011;11387;51.612;7.210;2023-02-28T03:48:51;5.18;;;1.80;;
22439;SDS011;11387;51.612;7.210;2023-02-28T03:51:25;5.25;;;2.30;;
22439;SDS011;11387;51.612;7.210;2023-02-28T03:53:59;3.95;;;2.28;;
22439;SDS011;11387;51.612;7.210;2023-02-28T03:56:34;8.30;;;2.15;;
22439;SDS011;11387;51.612;7.210;2023-02-28T03:59:09;5.65;;;2.22;;
22439;SDS011;11387;51.612;7.210;2023-02-28T04:01:44;7.53;;;2.30;;
22439;SDS011;11387;51.612;7.210;2023-02-28T04:04:14;5.97;;;2.00;;
22439;SDS011;11387;51.612;7.210;2023-02-28T04:06:44;4.50;;;1.70;;
22439;SDS011;11387;51.612;7.210;2023-02-28T04:09:15;4.90;;;1.50;;
22439;SDS011;11387;51.612;7.210;2023-02-28T04:11:44;4.50;;;1.95;;
22439;SDS011;11387;51.612;7.210;2023-02-28T04:14:15;3.70;;;1.90;;
22439;SDS011;11387;51.612;7.210;2023-02-28T04:16:44;7.68;;;2.17;;
22439;SDS011;11387;51.612;7.210;2023-02-28T04:19:13;5.57;;;2.00;;
22439;SDS011;11387;51.612;7.210;2023-02-28T04:21:43;6.47;;;2.30;;
22439;SDS011;11387;51.612;7.210;2023-02-28T04:24:16;5.10;;;2.10;;
22439;SDS011;11387;51.612;7.210;2023-02-28T04:26:46;4.43;;;1.98;;
22439;SDS011;11387;51.612;7.210;2023-02-28T04:29:18;5.03;;;1.92;;
22439;SDS011;11387;51.612;7.210;2023-02-28T04:31:48;2.60;;;1.63;;
22439;SDS011;11387;51.612;7.210;2023-02-28T04:34:16;4.50;;;2.35;;
22439;SDS011;11387;51.612;7.210;2023-02-28T04:36:45;3.35;;;1.95;;
22439;SDS011;11387;51.612;7.210;2023-02-28T04:39:35;4.38;;;2.20;;
22439;SDS011;11387;51.612;7.210;2023-02-28T04:42:04;5.10;;;2.30;;
22439;SDS011;11387;51.612;7.210;2023-02-28T04:44:33;8.88;;;2.30;;
22439;SDS011;11387;51.612;7.210;2023-02-28T04:47:01;8.05;;;2.78;;
22439;SDS011;11387;51.612;7.210;2023-02-28T04:49:30;4.63;;;2.25;;
22439;SDS011;11387;51.612;7.210;2023-02-28T04:52:00;7.10;;;1.95;;
22439;SDS011;11387;51.612;7.210;2023-02-28T04:54:29;8.13;;;2.25;;
22439;SDS011;11387;51.612;7.210;2023-02-28T04:57:00;5.03;;;2.15;;
22439;SDS011;11387;51.612;7.210;2023-02-28T04:59:29;3.55;;;2.03;;
22439;SDS011;11387;51.612;7.210;2023-02-28T05:01:58;5.85;;;2.47;;
22439;SDS011;11387;51.612;7.210;2023-02-28T05:04:26;4.93;;;2.10;;
22439;SDS011;11387;51.612;7.210;2023-02-28T05:06:55;4.80;;;2.45;;
22439;SDS011;11387;51.612;7.210;2023-02-28T05:09:23;4.88;;;2.67;;
22439;SDS011;11387;51.612;7.210;2023-02-28T05:11:52;5.50;;;2.45;;
22439;SDS011;11387;51.612;7.210;2023-02-28T05:14:22;6.03;;;2.33;;
22439;SDS011;11387;51.612;7.210;2023-02-28T05:16:50;12.77;;;2.92;;
22439;SDS011;11387;51.612;7.210;2023-02-28T05:19:19;5.68;;;2.55;;
22439;SDS011;11387;51.612;7.210;2023-02-28T05:21:49;5.70;;;2.72;;
22439;SDS011;11387;51.612;7.210;2023-02-28T05:24:19;6.57;;;3.10;;
22439;SDS011;11387;51.612;7.210;2023-02-28T05:26:50;8.80;;;3.38;;
22439;SDS011;11387;51.612;7.210;2023-02-28T05:29:22;9.57;;;2.92;;
22439;SDS011;11387;51.612;7.210;2023-02-28T05:31:53;6.40;;;2.90;;
22439;SDS011;11387;51.612;7.210;2023-02-28T05:34:22;7.60;;;2.90;;
22439;SDS011;11387;51.612;7.210;2023-02-28T05:36:50;6.45;;;2.90;;
22439;SDS011;11387;51.612;7.210;2023-02-28T05:39:19;7.10;;;3.20;;
22439;SDS011;11387;51.612;7.210;2023-02-28T05:41:48;6.93;;;3.25;;
22439;SDS011;11387;51.612;7.210;2023-02-28T05:44:17;9.65;;;2.90;;
22439;SDS011;11387;51.612;7.210;2023-02-28T05:46:47;4.90;;;2.45;;
22439;SDS011;11387;51.612;7.210;2023-02-28T05:49:15;11.02;;;3.22;;
22439;SDS011;11387;51.612;7.210;2023-02-28T05:51:46;8.98;;;3.28;;
22439;SDS011;11387;51.612;7.210;2023-02-28T05:54:14;6.88;;;2.90;;
22439;SDS011;11387;51.612;7.210;2023-02-28T05:56:43;7.50;;;3.47;;
22439;SDS011;11387;51.612;7.210;2023-02-28T05:59:12;5.55;;;3.25;;
22439;SDS011;11387;51.612;7.210;2023-02-28T06:01:41;10.75;;;3.42;;
22439;SDS011;11387;51.612;7.210;2023-02-28T06:04:16;15.85;;;3.17;;
22439;SDS011;11387;51.612;7.210;2023-02-28T06:06:57;5.60;;;3.17;;
22439;SDS011;11387;51.612;7.210;2023-02-28T06:09:26;7.38;;;3.10;;
22439;SDS011;11387;51.612;7.210;2023-02-28T06:11:55;12.65;;;3.42;;
22439;SDS011;11387;51.612;7.210;2023-02-28T06:14:26;7.03;;;3.15;;
22439;SDS011;11387;51.612;7.210;2023-02-28T06:16:54;6.38;;;3.63;;
22439;SDS011;11387;51.612;7.210;2023-02-28T06:19:32;11.65;;;3.72;;
22439;SDS011;11387;51.612;7.210;2023-02-28T06:22:02;7.03;;;3.10;;
22439;SDS011;11387;51.612;7.210;2023-02-28T06:24:30;7.43;;;3.70;;
22439;SDS011;11387;51.612;7.210;2023-02-28T06:27:02;7.03;;;3.22;;
22439;SDS011;11387;51.612;7.210;2023-02-28T06:29:32;8.65;;;3.42;;
22439;SDS011;11387;51.612;7.210;2023-02-28T06:32:02;7.05;;;3.20;;
22439;SDS011;11387;51.612;7.210;2023-02-28T06:34:32;8.15;;;3.40;;
22439;SDS011;11387;51.612;7.210;2023-02-28T06:37:02;5.22;;;2.88;;
22439;SDS011;11387;51.612;7.210;2023-02-28T06:39:30;7.80;;;3.28;;
22439;SDS011;11387;51.612;7.210;2023-02-28T06:41:59;9.23;;;3.33;;
22439;SDS011;11387;51.612;7.210;2023-02-28T06:44:28;9.32;;;3.72;;
22439;SDS011;11387;51.612;7.210;2023-02-28T06:47:02;7.68;;;3.63;;
22439;SDS011;11387;51.612;7.210;2023-02-28T06:49:34;8.30;;;3.70;;
22439;SDS011;11387;51.612;7.210;2023-02-28T06:52:03;8.48;;;3.30;;
22439;SDS011;11387;51.612;7.210;2023-02-28T06:54:32;8.07;;;3.10;;
22439;SDS011;11387;51.612;7.210;2023-02-28T06:57:00;7.20;;;3.42;;
22439;SDS011;11387;51.612;7.210;2023-02-28T06:59:30;11.77;;;5.80;;
22439;SDS011;11387;51.612;7.210;2023-02-28T07:01:59;9.43;;;3.33;;
22439;SDS011;11387;51.612;7.210;2023-02-28T07:04:29;6.53;;;2.78;;
22439;SDS011;11387;51.612;7.210;2023-02-28T07:06:59;6.55;;;3.05;;
22439;SDS011;11387;51.612;7.210;2023-02-28T07:09:27;9.95;;;3.40;;
22439;SDS011;11387;51.612;7.210;2023-02-28T07:11:58;7.18;;;2.85;;
22439;SDS011;11387;51.612;7.210;2023-02-28T07:14:27;7.85;;;3.08;;
22439;SDS011;11387;51.612;7.210;2023-02-28T07:16:56;7.45;;;3.40;;
22439;SDS011;11387;51.612;7.210;2023-02-28T07:19:25;9.07;;;2.90;;
22439;SDS011;11387;51.612;7.210;2023-02-28T07:21:53;8.93;;;3.35;;
22439;SDS011;11387;51.612;7.210;2023-02-28T07:24:24;6.85;;;2.63;;
22439;SDS011;11387;51.612;7.210;2023-02-28T07:26:55;9.10;;;3.20;;
22439;SDS011;11387;51.612;7.210;2023-02-28T07:29:24;7.25;;;3.00;;
22439;SDS011;11387;51.612;7.210;2023-02-28T07:31:53;6.65;;;2.92;;
22439;SDS011;11387;51.612;7.210;2023-02-28T07:34:22;4.18;;;2.67;;
22439;SDS011;11387;51.612;7.210;2023-02-28T07:36:52;5.20;;;2.60;;
22439;SDS011;11387;51.612;7.210;2023-02-28T07:39:21;7.63;;;2.70;;
22439;SDS011;11387;51.612;7.210;2023-02-28T07:41:51;3.45;;;2.35;;
22439;SDS011;11387;51.612;7.210;2023-02-28T07:44:20;4.15;;;2.30;;
22439;SDS011;11387;51.612;7.210;2023-02-28T07:46:48;6.93;;;2.60;;
22439;SDS011;11387;51.612;7.210;2023-02-28T07:49:17;4.88;;;2.70;;
22439;SDS011;11387;51.612;7.210;2023-02-28T07:51:45;5.80;;;2.65;;
22439;SDS011;11387;51.612;7.210;2023-02-28T07:54:14;5.72;;;2.85;;
22439;SDS011;11387;51.612;7.210;2023-02-28T07:56:43;5.53;;;2.53;;
22439;SDS011;11387;51.612;7.210;2023-02-28T07:59:13;9.45;;;3.00;;
22439;SDS011;11387;51.612;7.210;2023-02-28T08:01:41;6.05;;;2.80;;
22439;SDS011;11387;51.612;7.210;2023-02-28T08:04:11;8.40;;;3.05;;
22439;SDS011;11387;51.612;7.210;2023-02-28T08:06:40;10.13;;;3.20;;
22439;SDS011;11387;51.612;7.210;2023-02-28T08:09:08;9.48;;;3.45;;
22439;SDS011;11387;51.612;7.210;2023-02-28T08:11:41;6.32;;;2.97;;
22439;SDS011;11387;51.612;7.210;2023-02-28T08:14:10;5.22;;;2.60;;
22439;SDS011;11387;51.612;7.210;2023-02-28T08:16:40;4.82;;;2.63;;
22439;SDS011;11387;51.612;7.210;2023-02-28T08:19:09;6.15;;;2.95;;
22439;SDS011;11387;51.612;7.210;2023-02-28T08:21:38;5.47;;;2.58;;
22439;SDS011;11387;51.612;7.210;2023-02-28T08:24:06;5.07;;;2.30;;
22439;SDS011;11387;51.612;7.210;2023-02-28T08:26:35;3.78;;;2.20;;
22439;SDS011;11387;51.612;7.210;2023-02-28T08:29:04;4.15;;;2.10;;
22439;SDS011;11387;51.612;7.210;2023-02-28T08:31:32;6.90;;;2.10;;
22439;SDS011;11387;51.612;7.210;2023-02-28T08:34:05;7.68;;;3.03;;
22439;SDS011;11387;51.612;7.210;2023-02-28T08:36:35;5.72;;;2.25;;
22439;SDS011;11387;51.612;7.210;2023-02-28T08:39:03;5.28;;;2.20;;
22439;SDS011;11387;51.612;7.210;2023-02-28T08:41:34;5.07;;;2.65;;
22439;SDS011;11387;51.612;7.210;2023-02-28T08:44:03;9.77;;;2.92;;
22439;SDS011;11387;51.612;7.210;2023-02-28T08:46:32;4.75;;;2.28;;
22439;SDS011;11387;51.612;7.210;2023-02-28T08:49:01;8.98;;;2.60;;
22439;SDS011;11387;51.612;7.210;2023-02-28T08:51:31;7.43;;;2.53;;
22439;SDS011;11387;51.612;7.210;2023-02-28T08:54:00;3.28;;;2.20;;
22439;SDS011;11387;51.612;7.210;2023-02-28T08:56:29;4.57;;;2.55;;
22439;SDS011;11387;51.612;7.210;2023-02-28T08:58:57;4.50;;;2.17;;
22439;SDS011;11387;51.612;7.210;2023-02-28T09:01:27;6.13;;;2.35;;
22439;SDS011;11387;51.612;7.210;2023-02-28T09:03:57;4.80;;;2.03;;
22439;SDS011;11387;51.612;7.210;2023-02-28T09:06:26;5.15;;;2.67;;
22439;SDS011;11387;51.612;7.210;2023-02-28T09:08:57;5.28;;;2.20;;
22439;SDS011;11387;51.612;7.210;2023-02-28T09:11:28;3.85;;;1.88;;
22439;SDS011;11387;51.612;7.210;2023-02-28T09:13:58;5.43;;;2.13;;
22439;SDS011;11387;51.612;7.210;2023-02-28T09:16:32;10.50;;;2.33;;
22439;SDS011;11387;51.612;7.210;2023-02-28T09:19:12;6.00;;;2.65;;
22439;SDS011;11387;51.612;7.210;2023-02-28T09:21:41;4.47;;;2.45;;
22439;SDS011;11387;51.612;7.210;2023-02-28T09:24:11;4.18;;;1.80;;
22439;SDS011;11387;51.612;7.210;2023-02-28T09:26:41;7.80;;;2.67;;
22439;SDS011;11387;51.612;7.210;2023-02-28T09:29:30;4.90;;;2.30;;
22439;SDS011;11387;51.612;7.210;2023-02-28T09:32:00;4.72;;;2.20;;
22439;SDS011;11387;51.612;7.210;2023-02-28T09:34:28;3.30;;;1.92;;
22439;SDS011;11387;51.612;7.210;2023-02-28T09:36:58;4.55;;;2.33;;
22439;SDS011;11387;51.612;7.210;2023-02-28T09:39:33;5.05;;;2.20;;
22439;SDS011;11387;51.612;7.210;2023-02-28T09:42:02;7.00;;;2.13;;
22439;SDS011;11387;51.612;7.210;2023-02-28T09:44:33;4.47;;;2.08;;
22439;SDS011;11387;51.612;7.210;2023-02-28T09:47:07;4.30;;;1.67;;
22439;SDS011;11387;51.612;7.210;2023-02-28T09:49:45;4.78;;;1.85;;
22439;SDS011;11387;51.612;7.210;2023-02-28T09:52:17;4.43;;;2.05;;
22439;SDS011;11387;51.612;7.210;2023-02-28T09:54:51;5.35;;;1.83;;
22439;SDS011;11387;51.612;7.210;2023-02-28T09:57:22;3.83;;;1.90;;
22439;SDS011;11387;51.612;7.210;2023-02-28T10:00:01;4.07;;;1.95;;
22439;SDS011;11387;51.612;7.210;2023-02-28T10:03:18;6.55;;;2.83;;
22439;SDS011;11387;51.612;7.210;2023-02-28T10:06:40;4.63;;;2.58;;
22439;SDS011;11387;51.612;7.210;2023-02-28T10:09:16;7.38;;;3.15;;
22439;SDS011;11387;51.612;7.210;2023-02-28T10:12:24;3.55;;;2.08;;
22439;SDS011;11387;51.612;7.210;2023-02-28T10:14:57;5.95;;;2.58;;
22439;SDS011;11387;51.612;7.210;2023-02-28T10:17:30;4.38;;;2.03;;
22439;SDS011;11387;51.612;7.210;2023-02-28T10:20:35;4.05;;;1.83;;
22439;SDS011;11387;51.612;7.210;2023-02-28T10:23:17;3.55;;;1.50;;
22439;SDS011;11387;51.612;7.210;2023-02-28T10:25:53;4.18;;;1.95;;
22439;SDS011;11387;51.612;7.210;2023-02-28T10:28:39;7.68;;;2.00;;
22439;SDS011;11387;51.612;7.210;2023-02-28T10:31:18;5.70;;;1.95;;
22439;SDS011;11387;51.612;7.210;2023-02-28T10:33:51;3.50;;;1.77;;
22439;SDS011;11387;51.612;7.210;2023-02-28T10:36:29;4.65;;;1.90;;
22439;SDS011;11387;51.612;7.210;2023-02-28T10:39:01;7.68;;;2.03;;
22439;SDS011;11387;51.612;7.210;2023-02-28T10:42:05;5.50;;;1.80;;
22439;SDS011;11387;51.612;7.210;2023-02-28T10:45:09;3.13;;;1.40;;
22439;SDS011;11387;51.612;7.210;2023-02-28T10:47:51;5.22;;;1.55;;
22439;SDS011;11387;51.612;7.210;2023-02-28T10:50:30;2.95;;;1.70;;
22439;SDS011;11387;51.612;7.210;2023-02-28T10:53:28;4.57;;;1.25;;
22439;SDS011;11387;51.612;7.210;2023-02-28T10:56:36;3.13;;;1.10;;
22439;SDS011;11387;51.612;7.210;2023-02-28T10:59:24;5.22;;;1.30;;
22439;SDS011;11387;51.612;7.210;2023-02-28T11:02:28;2.15;;;0.98;;
22439;SDS011;11387;51.612;7.210;2023-02-28T11:05:24;5.25;;;1.17;;
22439;SDS011;11387;51.612;7.210;2023-02-28T11:07:54;3.47;;;1.52;;
22439;SDS011;11387;51.612;7.210;2023-02-28T11:10:26;3.25;;;1.20;;
22439;SDS011;11387;51.612;7.210;2023-02-28T11:16:17;1.65;;;0.88;;
22439;SDS011;11387;51.612;7.210;2023-02-28T11:18:50;3.55;;;1.40;;
22439;SDS011;11387;51.612;7.210;2023-02-28T11:21:28;4.50;;;1.85;;
22439;SDS011;11387;51.612;7.210;2023-02-28T11:24:25;3.88;;;1.30;;
22439;SDS011;11387;51.612;7.210;2023-02-28T11:26:58;3.40;;;1.35;;
22439;SDS011;11387;51.612;7.210;2023-02-28T11:32:26;4.18;;;1.33;;
22439;SDS011;11387;51.612;7.210;2023-02-28T11:35:02;2.65;;;1.38;;
22439;SDS011;11387;51.612;7.210;2023-02-28T11:37:48;2.40;;;1.38;;
22439;SDS011;11387;51.612;7.210;2023-02-28T11:40:22;2.67;;;1.40;;
22439;SDS011;11387;51.612;7.210;2023-02-28T11:43:16;2.95;;;1.50;;
22439;SDS011;11387;51.612;7.210;2023-02-28T11:45:58;4.10;;;1.58;;
22439;SDS011;11387;51.612;7.210;2023-02-28T11:49:03;3.40;;;1.75;;
22439;SDS011;11387;51.612;7.210;2023-02-28T11:52:06;3.33;;;1.52;;
22439;SDS011;11387;51.612;7.210;2023-02-28T11:54:58;4.10;;;1.52;;
22439;SDS011;11387;51.612;7.210;2023-02-28T11:57:52;2.95;;;1.67;;
22439;SDS011;11387;51.612;7.210;2023-02-28T12:04:01;7.13;;;1.60;;
22439;SDS011;11387;51.612;7.210;2023-02-28T12:06:57;2.70;;;1.50;;
22439;SDS011;11387;51.612;7.210;2023-02-28T12:12:47;2.75;;;1.60;;
22439;SDS011;11387;51.612;7.210;2023-02-28T12:18:33;3.72;;;1.50;;
22439;SDS011;11387;51.612;7.210;2023-02-28T12:21:26;2.92;;;1.52;;
22439;SDS011;11387;51.612;7.210;2023-02-28T12:24:09;2.85;;;1.38;;
22439;SDS011;11387;51.612;7.210;2023-02-28T12:26:59;3.88;;;1.50;;
22439;SDS011;11387;51.612;7.210;2023-02-28T12:29:38;5.18;;;1.70;;
22439;SDS011;11387;51.612;7.210;2023-02-28T12:35:12;3.72;;;1.65;;
22439;SDS011;11387;51.612;7.210;2023-02-28T12:40:50;6.25;;;1.30;;
22439;SDS011;11387;51.612;7.210;2023-02-28T12:43:29;4.55;;;1.48;;
22439;SDS011;11387;51.612;7.210;2023-02-28T12:46:02;5.10;;;1.30;;
22439;SDS011;11387;51.612;7.210;2023-02-28T12:48:40;2.65;;;1.23;;
22439;SDS011;11387;51.612;7.210;2023-02-28T12:51:16;2.65;;;1.20;;
22439;SDS011;11387;51.612;7.210;2023-02-28T12:53:54;2.42;;;1.10;;
22439;SDS011;11387;51.612;7.210;2023-02-28T12:56:38;3.25;;;1.20;;
22439;SDS011;11387;51.612;7.210;2023-02-28T12:59:20;4.22;;;1.10;;
22439;SDS011;11387;51.612;7.210;2023-02-28T13:05:04;4.32;;;1.63;;
22439;SDS011;11387;51.612;7.210;2023-02-28T13:11:07;4.13;;;1.30;;
22439;SDS011;11387;51.612;7.210;2023-02-28T13:13:57;3.28;;;1.42;;
22439;SDS011;11387;51.612;7.210;2023-02-28T13:19:27;3.38;;;1.20;;
22439;SDS011;11387;51.612;7.210;2023-02-28T13:21:59;2.55;;;1.20;;
22439;SDS011;11387;51.612;7.210;2023-02-28T13:24:40;4.93;;;2.20;;
22439;SDS011;11387;51.612;7.210;2023-02-28T13:33:31;4.15;;;1.73;;
22439;SDS011;11387;51.612;7.210;2023-02-28T13:36:08;3.58;;;1.85;;
22439;SDS011;11387;51.612;7.210;2023-02-28T13:38:39;2.95;;;1.50;;
22439;SDS011;11387;51.612;7.210;2023-02-28T13:44:23;6.65;;;1.90;;
22439;SDS011;11387;51.612;7.210;2023-02-28T13:49:50;5.18;;;2.78;;
22439;SDS011;11387;51.612;7.210;2023-02-28T13:52:21;6.78;;;1.70;;
22439;SDS011;11387;51.612;7.210;2023-02-28T13:57:55;4.18;;;1.52;;
22439;SDS011;11387;51.612;7.210;2023-02-28T14:00:44;4.43;;;1.77;;
22439;SDS011;11387;51.612;7.210;2023-02-28T14:03:40;3.33;;;1.70;;
22439;SDS011;11387;51.612;7.210;2023-02-28T14:06:21;5.90;;;2.17;;
22439;SDS011;11387;51.612;7.210;2023-02-28T14:08:55;2.67;;;1.60;;
22439;SDS011;11387;51.612;7.210;2023-02-28T14:11:29;4.75;;;1.90;;
22439;SDS011;11387;51.612;7.210;2023-02-28T14:14:02;4.78;;;1.88;;
22439;SDS011;11387;51.612;7.210;2023-02-28T14:16:37;3.25;;;1.73;;
22439;SDS011;11387;51.612;7.210;2023-02-28T14:19:11;4.68;;;1.80;;
22439;SDS011;11387;51.612;7.210;2023-02-28T14:21:50;6.65;;;2.17;;
22439;SDS011;11387;51.612;7.210;2023-02-28T14:27:37;3.10;;;1.88;;
22439;SDS011;11387;51.612;7.210;2023-02-28T14:30:16;3.80;;;2.30;;
22439;SDS011;11387;51.612;7.210;2023-02-28T14:33:04;5.95;;;2.03;;
22439;SDS011;11387;51.612;7.210;2023-02-28T14:35:46;4.18;;;1.90;;
22439;SDS011;11387;51.612;7.210;2023-02-28T14:38:27;5.75;;;2.45;;
22439;SDS011;11387;51.612;7.210;2023-02-28T14:41:04;5.35;;;1.70;;
22439;SDS011;11387;51.612;7.210;2023-02-28T14:43:54;7.68;;;2.63;;
22439;SDS011;11387;51.612;7.210;2023-02-28T14:46:25;4.28;;;2.20;;
22439;SDS011;11387;51.612;7.210;2023-02-28T14:49:06;2.70;;;1.90;;
22439;SDS011;11387;51.612;7.210;2023-02-28T14:51:45;3.63;;;1.90;;
22439;SDS011;11387;51.612;7.210;2023-02-28T14:54:16;5.38;;;1.80;;
22439;SDS011;11387;51.612;7.210;2023-02-28T14:56:51;6.35;;;2.33;;
22439;SDS011;11387;51.612;7.210;2023-02-28T14:59:23;5.20;;;2.05;;
22439;SDS011;11387;51.612;7.210;2023-02-28T15:04:58;6.32;;;2.15;;
22439;SDS011;11387;51.612;7.210;2023-02-28T15:07:28;5.68;;;1.80;;
22439;SDS011;11387;51.612;7.210;2023-02-28T15:10:16;4.18;;;1.98;;
22439;SDS011;11387;51.612;7.210;2023-02-28T15:12:56;11.90;;;2.47;;
22439;SDS011;11387;51.612;7.210;2023-02-28T15:15:33;5.95;;;2.33;;
22439;SDS011;11387;51.612;7.210;2023-02-28T15:18:30;7.72;;;2.63;;
22439;SDS011;11387;51.612;7.210;2023-02-28T15:21:05;4.20;;;2.17;;
22439;SDS011;11387;51.612;7.210;2023-02-28T15:23:39;4.30;;;2.35;;
22439;SDS011;11387;51.612;7.210;2023-02-28T15:26:19;4.20;;;2.20;;
22439;SDS011;11387;51.612;7.210;2023-02-28T15:28:50;3.15;;;1.85;;
22439;SDS011;11387;51.612;7.210;2023-02-28T15:31:27;3.55;;;1.90;;
22439;SDS011;11387;51.612;7.210;2023-02-28T15:34:18;4.05;;;2.13;;
22439;SDS011;11387;51.612;7.210;2023-02-28T15:36:50;4.50;;;2.20;;
22439;SDS011;11387;51.612;7.210;2023-02-28T15:39:20;5.15;;;2.10;;
22439;SDS011;11387;51.612;7.210;2023-02-28T15:41:51;7.40;;;3.08;;
22439;SDS011;11387;51.612;7.210;2023-02-28T15:44:24;4.22;;;2.13;;
22439;SDS011;11387;51.612;7.210;2023-02-28T15:46:58;4.10;;;2.30;;
22439;SDS011;11387;51.612;7.210;2023-02-28T15:49:32;8.20;;;2.75;;
22439;SDS011;11387;51.612;7.210;2023-02-28T15:52:13;4.53;;;2.60;;
22439;SDS011;11387;51.612;7.210;2023-02-28T15:54:44;4.72;;;2.33;;
22439;SDS011;11387;51.612;7.210;2023-02-28T15:57:17;4.80;;;2.60;;
22439;SDS011;11387;51.612;7.210;2023-02-28T15:59:51;8.80;;;2.63;;
22439;SDS011;11387;51.612;7.210;2023-02-28T16:02:23;7.72;;;2.70;;
22439;SDS011;11387;51.612;7.210;2023-02-28T16:05:16;9.55;;;2.90;;
22439;SDS011;11387;51.612;7.210;2023-02-28T16:10:17;5.17;;;2.50;;
22439;SDS011;11387;51.612;7.210;2023-02-28T16:12:47;5.68;;;2.40;;
22439;SDS011;11387;51.612;7.210;2023-02-28T16:15:19;6.28;;;3.38;;
22439;SDS011;11387;51.612;7.210;2023-02-28T16:17:50;13.65;;;5.47;;
22439;SDS011;11387;51.612;7.210;2023-02-28T16:23:11;5.97;;;3.28;;
22439;SDS011;11387;51.612;7.210;2023-02-28T16:25:45;7.72;;;3.22;;
22439;SDS011;11387;51.612;7.210;2023-02-28T16:28:18;6.80;;;3.20;;
22439;SDS011;11387;51.612;7.210;2023-02-28T16:30:49;6.38;;;3.28;;